Time;durP1;ratioP1;P1;durP2;ratioP2;P2;SDS_P1;SDS_P2;PMS_P1;PMS_P2;Temp;Humidity;BMP_temperature;BMP_pressure;BME280_temperature;BME280_humidity;BME280_pressure;Samples;Min_cycle;Max_cycle;Signal;HPM_P1;HPM_P2
2022/04/27 00:01:22;;;;;;;;;;;;;;;5.78;100.00;98380.52;1647210;86;20273;-82
2022/04/27 00:03:48;;;;;;;;;;;;;;;5.64;100.00;98381.20;1656102;85;24760;-82
2022/04/27 00:06:17;;;;;;;;;;;;;;;5.53;100.00;98386.09;1668883;84;22028;-83
2022/04/27 00:08:43;;;;;;;;;;;;;;;5.48;100.00;98388.08;1629298;87;25987;-82
2022/04/27 00:11:09;;;;;;;;;;;;;;;5.44;100.00;98383.52;1625528;87;20304;-83
2022/04/27 00:13:35;;;;;;;;;;;;;;;5.45;100.00;98383.87;1652056;85;20792;-83
2022/04/27 00:16:01;;;;;;;;;;;;;;;5.43;100.00;98380.98;1642692;86;24759;-82
2022/04/27 00:18:36;;;;;;;;;;;;;;;5.39;100.00;98376.87;1651049;85;22653;-82
2022/04/27 00:21:04;;;;;;;;;;;;;;;5.38;100.00;98382.52;1673865;83;22406;-82
2022/04/27 00:23:32;;;;;;;;;;;;;;;5.38;100.00;98377.78;1639833;86;20288;-82
2022/04/27 00:26:00;;;;;;;;;;;;;;;5.42;100.00;98380.59;1662140;83;20821;-83
2022/04/27 00:28:28;;;;;;;;;;;;;;;5.42;100.00;98380.14;1668801;85;25390;-83
2022/04/27 00:30:54;;;;;;;;;;;;;;;5.42;100.00;98379.30;1667141;85;22009;-82
2022/04/27 00:33:21;;;;;;;;;;;;;;;5.42;100.00;98378.00;1658447;85;25983;-82
2022/04/27 00:35:51;;;;;;;;;;;;;;;5.38;100.00;98376.03;1627503;87;24000;-83
2022/04/27 00:38:17;;;;;;;;;;;;;;;5.30;100.00;98373.41;1640048;86;20221;-83
2022/04/27 00:40:44;;;;;;;;;;;;;;;5.23;100.00;98375.95;1677102;85;24774;-83
2022/04/27 00:43:12;;;;;;;;;;;;;;;5.16;100.00;98371.52;1672284;85;21986;-82
2022/04/27 00:45:38;;;;;;;;;;;;;;;5.10;100.00;98373.11;1671045;85;26005;-83
2022/04/27 00:48:04;;;;;;;;;;;;;;;5.04;100.00;98373.41;1670877;85;24655;-83
2022/04/27 00:50:30;;;;;;;;;;;;;;;4.99;100.00;98378.81;1676694;85;20458;-83
2022/04/27 00:52:56;;;;;;;;;;;;;;;4.97;100.00;98378.49;1678791;85;24804;-83
2022/04/27 00:55:26;;;;;;;;;;;;;;;4.99;100.00;98376.68;1674688;85;20902;-83
2022/04/27 00:57:52;;;;;;;;;;;;;;;5.09;100.00;98384.84;1663344;85;26060;-83
2022/04/27 01:00:21;;;;;;;;;;;;;;;5.14;100.00;98381.11;1667542;85;24471;-83
2022/04/27 01:02:47;;;;;;;;;;;;;;;5.20;100.00;98380.82;1652287;85;20518;-83
2022/04/27 01:05:13;;;;;;;;;;;;;;;5.38;100.00;98382.52;1665911;85;20290;-83
2022/04/27 01:07:40;;;;;;;;;;;;;;;5.44;100.00;98380.08;1668147;85;22042;-83
2022/04/27 01:10:07;;;;;;;;;;;;;;;5.39;100.00;98388.09;1667968;85;25941;-83
2022/04/27 01:12:35;;;;;;;;;;;;;;;5.35;100.00;98389.14;1667100;85;24611;-83
2022/04/27 01:15:07;;;;;;;;;;;;;;;5.48;100.00;98387.63;1666317;85;20169;-83
2022/04/27 01:17:33;;;;;;;;;;;;;;;5.63;100.00;98391.65;1665374;85;24830;-83
2022/04/27 01:19:59;;;;;;;;;;;;;;;5.70;100.00;98393.03;1667872;85;22756;-83
2022/04/27 01:22:27;;;;;;;;;;;;;;;5.76;100.00;98394.02;1668948;85;26774;-83
2022/04/27 01:24:56;;;;;;;;;;;;;;;5.81;100.00;98393.32;1664256;85;25282;-83
2022/04/27 01:27:22;;;;;;;;;;;;;;;5.68;100.00;98394.85;1666862;85;20295;-83
2022/04/27 01:29:48;;;;;;;;;;;;;;;5.55;100.00;98388.16;1665295;85;20212;-83
2022/04/27 01:32:15;;;;;;;;;;;;;;;5.53;100.00;98394.33;1665217;85;21465;-83
2022/04/27 01:34:43;;;;;;;;;;;;;;;5.60;100.00;98393.12;1669857;85;21082;-83
2022/04/27 01:39:54;;;;;;;;;;;;;;;5.60;100.00;98395.72;1658502;85;20198;-82
2022/04/27 01:42:20;;;;;;;;;;;;;;;5.55;100.00;98396.41;1653247;86;24944;-82
2022/04/27 01:44:46;;;;;;;;;;;;;;;5.47;100.00;98395.02;1668366;85;20857;-82
2022/04/27 01:47:12;;;;;;;;;;;;;;;5.42;100.00;98402.66;1669834;85;20954;-82
2022/04/27 01:49:40;;;;;;;;;;;;;;;5.34;100.00;98399.62;1680114;85;20299;-82
2022/04/27 01:54:49;;;;;;;;;;;;;;;5.30;100.00;98403.25;1648623;86;24776;-82
2022/04/27 01:57:17;;;;;;;;;;;;;;;5.30;100.00;98402.80;1645601;86;22707;-83
2022/04/27 01:59:47;;;;;;;;;;;;;;;5.30;100.00;98404.09;1652208;86;25955;-83
2022/04/27 02:02:11;;;;;;;;;;;;;;;5.33;100.00;98403.12;1652507;85;24423;-82
2022/04/27 02:04:39;;;;;;;;;;;;;;;5.33;100.00;98401.82;1651692;86;20311;-83
2022/04/27 02:07:05;;;;;;;;;;;;;;;5.33;100.00;98400.52;1654335;86;24677;-83
2022/04/27 02:09:31;;;;;;;;;;;;;;;5.28;100.00;98394.27;1646627;86;20397;-83
2022/04/27 02:11:57;;;;;;;;;;;;;;;5.29;100.00;98401.11;1654273;86;27354;-83
2022/04/27 02:14:23;;;;;;;;;;;;;;;5.31;100.00;98399.75;1670704;85;20866;-83
2022/04/27 02:16:50;;;;;;;;;;;;;;;5.35;100.00;98405.16;1667980;85;20573;-83
2022/04/27 02:19:21;;;;;;;;;;;;;;;5.34;100.00;98403.05;1660794;85;25893;-83
2022/04/27 02:21:47;;;;;;;;;;;;;;;5.32;100.00;98395.79;1663359;85;22001;-83
2022/04/27 02:24:15;;;;;;;;;;;;;;;5.29;100.00;98390.73;1647535;86;26641;-83
2022/04/27 02:26:42;;;;;;;;;;;;;;;5.30;100.00;98393.72;1663119;85;24582;-84
2022/04/27 02:29:09;;;;;;;;;;;;;;;5.34;100.00;98394.42;1641715;86;20468;-83
2022/04/27 02:31:41;;;;;;;;;;;;;;;5.40;100.00;98396.72;1666634;84;24924;-83
2022/04/27 02:34:04;;;;;;;;;;;;;;;5.47;100.00;98396.32;1663564;85;21847;-83
2022/04/27 02:36:30;;;;;;;;;;;;;;;5.64;100.00;98399.83;1669958;85;26058;-83
2022/04/27 02:38:56;;;;;;;;;;;;;;;5.82;100.00;98393.70;1670838;85;24572;-83
2022/04/27 02:41:24;;;;;;;;;;;;;;;5.80;100.00;98396.38;1670332;85;20781;-82
2022/04/27 02:43:50;;;;;;;;;;;;;;;5.76;100.00;98395.31;1672572;85;24847;-83
2022/04/27 02:46:16;;;;;;;;;;;;;;;5.72;100.00;98397.24;1669955;85;22652;-83
2022/04/27 02:51:48;;;;;;;;;;;;;;;5.61;100.00;98394.34;1672941;85;26109;-83
2022/04/27 02:53:56;;;;;;;;;;;;;;;5.31;100.00;98399.75;1669993;85;20241;-82
2022/04/27 02:56:24;;;;;;;;;;;;;;;5.21;100.00;98407.60;1674679;85;20261;-82
2022/04/27 02:58:50;;;;;;;;;;;;;;;5.15;100.00;98414.38;1670856;85;23470;-83
2022/04/27 03:01:19;;;;;;;;;;;;;;;5.11;100.00;98416.30;1674644;85;21017;-83
2022/04/27 03:03:45;;;;;;;;;;;;;;;5.13;100.00;98416.23;1669829;84;25109;-83
2022/04/27 03:06:11;;;;;;;;;;;;;;;5.13;100.00;98418.34;1669633;85;20225;-83
2022/04/27 03:08:37;;;;;;;;;;;;;;;5.17;100.00;98423.78;1671194;85;20222;-82
2022/04/27 03:11:03;;;;;;;;;;;;;;;5.22;100.00;98422.27;1674187;85;20306;-83
2022/04/27 03:13:29;;;;;;;;;;;;;;;5.26;100.00;98425.08;1671479;85;21027;-82
2022/04/27 03:15:55;;;;;;;;;;;;;;;5.26;100.00;98424.63;1668960;85;20850;-82
2022/04/27 03:18:20;;;;;;;;;;;;;;;5.24;100.00;98425.59;1671045;85;20275;-82
2022/04/27 03:20:47;;;;;;;;;;;;;;;5.20;100.00;98425.38;1671255;85;20251;-82
2022/04/27 03:23:14;;;;;;;;;;;;;;;5.22;100.00;98426.16;1669490;85;21983;-83
2022/04/27 03:25:41;;;;;;;;;;;;;;;5.24;100.00;98429.48;1662116;84;26308;-83
2022/04/27 03:28:07;;;;;;;;;;;;;;;5.25;100.00;98424.23;1669649;85;24473;-83
2022/04/27 03:30:33;;;;;;;;;;;;;;;5.27;100.00;98429.36;1665404;85;20821;-84
2022/04/27 03:33:00;;;;;;;;;;;;;;;5.30;100.00;98433.94;1665310;85;24789;-84
2022/04/27 03:35:31;;;;;;;;;;;;;;;5.34;100.00;98438.08;1666788;85;21908;-83
2022/04/27 03:38:01;;;;;;;;;;;;;;;5.39;100.00;98437.40;1668336;85;26776;-83
2022/04/27 03:40:28;;;;;;;;;;;;;;;5.42;100.00;98432.05;1665682;85;24592;-82
2022/04/27 03:42:54;;;;;;;;;;;;;;;5.45;100.00;98434.47;1667956;85;20170;-82
2022/04/27 03:45:20;;;;;;;;;;;;;;;5.47;100.00;98437.84;1637550;86;24907;-82
2022/04/27 03:47:47;;;;;;;;;;;;;;;5.50;100.00;98441.22;1669418;85;21907;-83
2022/04/27 03:50:13;;;;;;;;;;;;;;;5.55;100.00;98442.67;1636983;85;26174;-83
2022/04/27 03:52:39;;;;;;;;;;;;;;;5.67;100.00;98439.47;1663902;86;24358;-83
2022/04/27 03:55:08;;;;;;;;;;;;;;;5.73;100.00;98443.03;1666908;85;20223;-83
2022/04/27 03:57:34;;;;;;;;;;;;;;;5.73;100.00;98446.08;1660125;86;24810;-83
2022/04/27 04:00:00;;;;;;;;;;;;;;;5.69;100.00;98449.30;1659577;86;22033;-83
2022/04/27 04:02:26;;;;;;;;;;;;;;;5.64;100.00;98448.69;1666966;85;21131;-83
2022/04/27 04:04:52;;;;;;;;;;;;;;;5.56;100.00;98452.14;1666934;85;20243;-83
2022/04/27 04:07:18;;;;;;;;;;;;;;;5.44;100.00;98456.63;1668405;85;20543;-83
2022/04/27 04:09:44;;;;;;;;;;;;;;;5.39;100.00;98464.64;1667351;85;20209;-83
2022/04/27 04:12:10;;;;;;;;;;;;;;;5.36;100.00;98470.42;1664228;85;20280;-83
2022/04/27 04:14:36;;;;;;;;;;;;;;;5.35;100.00;98474.77;1661518;84;26132;-83
2022/04/27 04:17:03;;;;;;;;;;;;;;;5.33;100.00;98470.13;1638170;87;24531;-83
2022/04/27 04:19:29;;;;;;;;;;;;;;;5.34;100.00;98475.70;1634728;86;20753;-83
2022/04/27 04:21:55;;;;;;;;;;;;;;;5.38;100.00;98475.09;1660356;86;20334;-83
2022/04/27 04:24:25;;;;;;;;;;;;;;;5.38;100.00;98477.23;1660820;86;21953;-83
2022/04/27 04:29:35;;;;;;;;;;;;;;;5.45;100.00;98480.38;1663075;86;24494;-83
2022/04/27 04:32:01;;;;;;;;;;;;;;;5.41;100.00;98477.07;1662747;86;20790;-83
2022/04/27 04:34:35;;;;;;;;;;;;;;;5.37;100.00;98482.48;1664970;86;24841;-83
2022/04/27 04:37:01;;;;;;;;;;;;;;;5.37;100.00;98476.00;1658430;86;21943;-83
2022/04/27 04:39:27;;;;;;;;;;;;;;;5.38;100.00;98478.53;1658291;84;26046;-84
2022/04/27 04:41:53;;;;;;;;;;;;;;;5.38;100.00;98481.58;1659886;86;20250;-83
2022/04/27 04:44:19;;;;;;;;;;;;;;;5.33;100.00;98475.31;1653606;86;20258;-83
2022/04/27 04:46:45;;;;;;;;;;;;;;;5.34;100.00;98478.76;1658391;86;20678;-83
2022/04/27 04:49:11;;;;;;;;;;;;;;;5.36;100.00;98489.88;1648171;86;22027;-83
2022/04/27 04:51:37;;;;;;;;;;;;;;;5.38;100.00;98485.02;1635347;87;25988;-83
2022/04/27 04:54:06;;;;;;;;;;;;;;;5.45;100.00;98490.76;1633565;87;20795;-83
2022/04/27 04:56:32;;;;;;;;;;;;;;;5.53;100.00;98489.91;1660338;86;20293;-84
2022/04/27 04:58:58;;;;;;;;;;;;;;;5.58;100.00;98488.39;1647335;86;24794;-83
2022/04/27 05:01:24;;;;;;;;;;;;;;;5.60;100.00;98493.05;1661144;86;21977;-83
2022/04/27 05:03:50;;;;;;;;;;;;;;;5.64;100.00;98495.88;1657753;85;21135;-84
2022/04/27 05:06:16;;;;;;;;;;;;;;;5.68;100.00;98497.40;1656942;86;20288;-83
2022/04/27 05:08:42;;;;;;;;;;;;;;;5.76;100.00;98499.17;1642991;86;20819;-83
2022/04/27 05:11:08;;;;;;;;;;;;;;;5.87;100.00;98504.71;1663325;86;20251;-83
2022/04/27 05:13:37;;;;;;;;;;;;;;;6.03;100.00;98500.43;1649014;86;20372;-83
2022/04/27 05:16:02;;;;;;;;;;;;;;;6.20;100.00;98504.31;1647210;86;26230;-83
2022/04/27 05:18:28;;;;;;;;;;;;;;;6.34;100.00;98504.05;1624983;86;24362;-83
2022/04/27 05:20:54;;;;;;;;;;;;;;;6.47;100.00;98505.11;1650388;86;20275;-83
2022/04/27 05:23:20;;;;;;;;;;;;;;;6.51;100.00;98514.41;1650864;86;24781;-84
2022/04/27 05:25:46;;;;;;;;;;;;;;;6.47;100.00;98515.05;1663618;86;20241;-83
2022/04/27 05:28:13;;;;;;;;;;;;;;;6.47;100.00;98516.34;1652076;86;21160;-83
2022/04/27 05:33:23;;;;;;;;;;;;;;;6.70;100.00;98519.89;1659787;85;20240;-83
2022/04/27 05:35:50;;;;;;;;;;;;;;;6.72;100.00;98522.39;1658443;86;24802;-83
2022/04/27 05:38:16;;;;;;;;;;;;;;;6.80;100.00;98527.20;1656084;86;22085;-83
2022/04/27 05:40:43;;;;;;;;;;;;;;;6.87;100.00;98522.05;1672883;85;26738;-83
2022/04/27 05:43:11;;;;;;;;;;;;;;;6.92;100.00;98527.39;1673314;84;24454;-84
2022/04/27 05:45:37;;;;;;;;;;;;;;;6.95;100.00;98527.22;1675273;85;20323;-84
2022/04/27 05:48:03;;;;;;;;;;;;;;;7.02;100.00;98527.27;1669784;85;24745;-84
2022/04/27 05:50:29;;;;;;;;;;;;;;;7.17;100.00;98527.35;1671111;85;21925;-83
2022/04/27 05:53:00;;;;;;;;;;;;;;;7.25;100.00;98530.39;1673199;85;26710;-84
2022/04/27 05:55:26;;;;;;;;;;;;;;;7.26;100.00;98534.64;1674388;85;24507;-84
2022/04/27 05:57:52;;;;;;;;;;;;;;;7.28;100.00;98536.72;1671186;85;20240;-84
2022/04/27 06:00:19;;;;;;;;;;;;;;;7.28;100.00;98540.63;1674358;85;24712;-84
2022/04/27 06:02:46;;;;;;;;;;;;;;;7.28;100.00;98541.92;1666005;85;23086;-84
2022/04/27 06:05:12;;;;;;;;;;;;;;;7.30;100.00;98546.13;1668093;84;25993;-84
2022/04/27 06:07:40;;;;;;;;;;;;;;;7.32;100.00;98546.03;1671352;85;24417;-84
2022/04/27 06:10:07;;;;;;;;;;;;;;;7.30;100.00;98546.59;1671950;84;20266;-83
2022/04/27 06:12:35;;;;;;;;;;;;;;;7.33;100.00;98548.55;1675141;85;24923;-83
2022/04/27 06:15:03;;;;;;;;;;;;;;;7.36;100.00;98553.61;1667960;85;22059;-83
2022/04/27 06:17:29;;;;;;;;;;;;;;;7.35;100.00;98553.23;1670876;85;26931;-83
2022/04/27 06:19:55;;;;;;;;;;;;;;;7.35;100.00;98560.20;1668079;85;24417;-83
2022/04/27 06:22:22;;;;;;;;;;;;;;;7.39;100.00;98563.00;1662982;85;20224;-82
2022/04/27 06:24:48;;;;;;;;;;;;;;;7.40;100.00;98560.32;1669113;84;24771;-83
2022/04/27 06:27:14;;;;;;;;;;;;;;;7.41;100.00;98562.00;1664842;84;21960;-83
2022/04/27 06:29:40;;;;;;;;;;;;;;;7.43;100.00;98565.34;1671105;85;20985;-83
2022/04/27 06:32:06;;;;;;;;;;;;;;;7.47;100.00;98563.44;1670357;84;20279;-83
2022/04/27 06:34:32;;;;;;;;;;;;;;;7.47;100.00;98564.73;1663563;85;20503;-83
2022/04/27 06:36:58;;;;;;;;;;;;;;;7.47;100.00;98564.24;1671953;84;25015;-83
2022/04/27 06:39:24;;;;;;;;;;;;;;;7.49;100.00;98566.77;1676192;85;20969;-82
2022/04/27 06:41:51;;;;;;;;;;;;;;;7.51;100.00;98565.78;1663438;84;26651;-83
2022/04/27 06:44:17;;;;;;;;;;;;;;;7.56;100.00;98565.05;1673349;85;25263;-83
2022/04/27 06:46:43;;;;;;;;;;;;;;;7.61;100.00;98570.47;1675158;85;20347;-83
2022/04/27 06:49:09;;;;;;;;;;;;;;;7.63;100.00;98573.38;1672711;84;24756;-83
2022/04/27 06:51:37;;;;;;;;;;;;;;;7.67;100.00;98575.34;1663766;85;20231;-83
2022/04/27 06:54:03;;;;;;;;;;;;;;;7.73;100.00;98575.84;1671506;85;21061;-83
2022/04/27 06:56:29;;;;;;;;;;;;;;;7.79;100.00;98575.50;1672273;84;24507;-84
2022/04/27 06:58:55;;;;;;;;;;;;;;;7.82;100.00;98577.08;1669246;84;20301;-84
2022/04/27 07:01:21;;;;;;;;;;;;;;;7.84;100.00;98573.93;1666682;85;20237;-84
2022/04/27 07:03:54;;;;;;;;;;;;;;;7.89;100.00;98579.26;1669148;85;20302;-84
2022/04/27 07:06:16;;;;;;;;;;;;;;;7.94;100.00;98584.20;1667811;85;25997;-82
2022/04/27 07:08:43;;;;;;;;;;;;;;;7.95;100.00;98581.98;1671300;85;20297;-82
2022/04/27 07:11:09;;;;;;;;;;;;;;;7.93;100.00;98579.45;1672383;85;20434;-83
2022/04/27 07:13:35;;;;;;;;;;;;;;;7.99;100.00;98580.88;1671162;85;20251;-83
2022/04/27 07:16:01;;;;;;;;;;;;;;;8.05;100.00;98585.73;1669265;85;20782;-83
2022/04/27 07:18:29;;;;;;;;;;;;;;;8.10;100.00;98585.01;1671618;85;26023;-83
2022/04/27 07:20:55;;;;;;;;;;;;;;;8.13;100.00;98587.42;1666397;85;24612;-83
2022/04/27 07:23:21;;;;;;;;;;;;;;;8.16;100.00;98591.64;1665330;85;20826;-83
2022/04/27 07:25:47;;;;;;;;;;;;;;;8.18;100.00;98595.01;1672812;85;20582;-83
2022/04/27 07:28:13;;;;;;;;;;;;;;;8.23;100.00;98599.03;1678170;85;22017;-83
2022/04/27 07:30:40;;;;;;;;;;;;;;;8.24;100.00;98598.53;1668872;85;25981;-83
2022/04/27 07:33:06;;;;;;;;;;;;;;;8.27;100.00;98605.73;1671221;85;24447;-83
2022/04/27 07:35:32;;;;;;;;;;;;;;;8.34;100.00;98608.87;1672731;85;20310;-83
2022/04/27 07:37:58;;;;;;;;;;;;;;;8.38;100.00;98615.58;1671469;85;20853;-83
2022/04/27 07:40:24;;;;;;;;;;;;;;;8.39;100.00;98614.66;1669354;85;20847;-83
2022/04/27 07:42:50;;;;;;;;;;;;;;;8.44;100.00;98620.44;1647831;86;26024;-83
2022/04/27 07:45:16;;;;;;;;;;;;;;;8.49;100.00;98624.92;1656020;85;20441;-83
2022/04/27 07:47:43;;;;;;;;;;;;;;;8.56;100.00;98624.95;1650661;86;20351;-83
2022/04/27 07:50:10;;;;;;;;;;;;;;;8.64;100.00;98634.45;1644225;86;24728;-83
2022/04/27 07:52:36;;;;;;;;;;;;;;;8.71;100.00;98629.72;1651823;86;21986;-83
2022/04/27 07:55:03;;;;;;;;;;;;;;;8.76;100.00;98628.52;1643364;86;21623;-83
2022/04/27 07:57:30;;;;;;;;;;;;;;;8.80;100.00;98630.00;1650512;85;24492;-83
2022/04/27 07:59:56;;;;;;;;;;;;;;;8.86;100.00;98636.63;1650107;86;20181;-83
2022/04/27 08:02:24;;;;;;;;;;;;;;;8.94;100.00;98638.80;1646700;86;24225;-82
2022/04/27 08:04:50;;;;;;;;;;;;;;;9.02;100.00;98636.55;1641316;86;21972;-83
2022/04/27 08:07:16;;;;;;;;;;;;;;;9.07;100.00;98635.80;1657841;86;20988;-83
2022/04/27 08:09:42;;;;;;;;;;;;;;;9.08;100.00;98637.48;1642454;86;24133;-83
2022/04/27 08:12:08;;;;;;;;;;;;;;;9.12;100.00;98637.66;1656847;86;20720;-83
2022/04/27 08:14:39;;;;;;;;;;;;;;;9.16;100.00;98638.69;1647360;86;20278;-83
2022/04/27 08:17:06;;;;;;;;;;;;;;;9.22;100.00;98639.63;1649587;86;22051;-83
2022/04/27 08:19:32;;;;;;;;;;;;;;;9.27;100.00;98644.59;1641361;86;25979;-83
2022/04/27 08:21:59;;;;;;;;;;;;;;;9.26;100.00;98648.12;1645371;86;24452;-83
2022/04/27 08:24:25;;;;;;;;;;;;;;;9.32;100.00;98650.37;1653694;86;20162;-83
2022/04/27 08:26:51;;;;;;;;;;;;;;;9.38;100.00;98656.49;1648256;86;24721;-83
2022/04/27 08:29:18;;;;;;;;;;;;;;;9.40;100.00;98654.64;1647877;86;22008;-82
2022/04/27 08:31:43;;;;;;;;;;;;;;;9.42;100.00;98654.55;1651468;86;21118;-83
2022/04/27 08:34:09;;;;;;;;;;;;;;;9.46;100.00;98650.81;1648664;85;24492;-83
2022/04/27 08:36:36;;;;;;;;;;;;;;;9.55;100.00;98660.22;1651822;85;20269;-83
2022/04/27 08:39:02;;;;;;;;;;;;;;;9.53;100.00;98660.80;1647589;86;24785;-82
2022/04/27 08:41:28;;;;;;;;;;;;;;;9.51;100.00;98661.34;1644801;86;20424;-83
2022/04/27 08:43:56;;;;;;;;;;;;;;;9.52;100.00;98659.11;1639267;86;26116;-83
2022/04/27 08:46:24;;;;;;;;;;;;;;;9.55;100.00;98658.06;1642868;86;24498;-83
2022/04/27 08:48:50;;;;;;;;;;;;;;;9.59;100.00;98666.95;1651119;86;20518;-83
2022/04/27 08:51:16;;;;;;;;;;;;;;;9.60;100.00;98663.38;1646302;86;24767;-83
2022/04/27 08:53:43;;;;;;;;;;;;;;;9.58;100.00;98670.50;1648076;86;21934;-83
2022/04/27 08:56:09;;;;;;;;;;;;;;;9.62;100.00;98661.98;1635213;86;26136;-83
2022/04/27 08:58:36;;;;;;;;;;;;;;;9.62;100.00;98661.52;1614793;87;20316;-83
2022/04/27 09:01:02;;;;;;;;;;;;;;;9.66;100.00;98666.92;1649152;86;20275;-83
2022/04/27 09:03:30;;;;;;;;;;;;;;;9.69;100.00;98659.37;1650269;86;24909;-83
2022/04/27 09:06:02;;;;;;;;;;;;;;;9.73;100.00;98667.84;1635496;86;21970;-83
2022/04/27 09:08:41;;;;;;;;;;;;;;;9.77;100.00;98661.48;1612771;85;26050;-83
2022/04/27 09:11:20;;;;;;;;;;;;;;;9.83;100.00;98671.56;1652386;86;24462;-83
2022/04/27 09:13:48;;;;;;;;;;;;;;;9.84;100.00;98668.86;1648903;86;20460;-83
2022/04/27 09:16:14;;;;;;;;;;;;;;;9.87;100.00;98666.53;1648215;86;24839;-82
2022/04/27 09:21:56;;;;;;;;;;;;;;;10.05;100.00;98667.49;1644134;86;26065;-83
2022/04/27 09:24:22;;;;;;;;;;;;;;;10.20;100.00;98670.11;1651355;86;24420;-83
2022/04/27 09:27:03;;;;;;;;;;;;;;;10.32;100.00;98664.90;1647231;86;20564;-83
2022/04/27 09:29:29;;;;;;;;;;;;;;;10.40;100.00;98664.41;1652191;86;24855;-83
2022/04/27 09:31:56;;;;;;;;;;;;;;;10.43;100.00;98665.51;1650019;86;22166;-83
2022/04/27 09:34:29;;;;;;;;;;;;;;;10.44;100.00;98658.87;1651886;86;26942;-84
2022/04/27 09:36:56;;;;;;;;;;;;;;;10.49;100.00;98662.49;1648844;86;24391;-83
2022/04/27 09:39:23;;;;;;;;;;;;;;;10.55;100.00;98662.55;1642631;86;20523;-84
2022/04/27 09:41:50;;;;;;;;;;;;;;;10.66;100.00;98662.69;1649769;85;24958;-83
2022/04/27 09:44:28;;;;;;;;;;;;;;;10.77;100.00;98659.73;1628284;86;22182;-83
2022/04/27 09:47:04;;;;;;;;;;;;;;;10.77;100.00;98657.58;1650587;85;26757;-83
2022/04/27 09:49:28;;;;;;;;;;;;;;;10.77;100.00;98657.58;1649253;86;25081;-83
2022/04/27 09:51:55;;;;;;;;;;;;;;;10.84;100.00;98662.31;1646393;86;20288;-83
2022/04/27 09:54:23;;;;;;;;;;;;;;;10.94;100.00;98665.61;1648122;86;24837;-83
2022/04/27 09:56:51;;;;;;;;;;;;;;;10.97;100.00;98660.15;1652908;86;21989;-83
2022/04/27 09:59:19;;;;;;;;;;;;;;;10.98;100.00;98663.14;1650649;86;26918;-83
2022/04/27 10:01:45;;;;;;;;;;;;;;;11.02;100.00;98660.20;1651857;86;24423;-83
2022/04/27 10:04:12;;;;;;;;;;;;;;;11.04;100.00;98658.80;1653212;86;20178;-84
2022/04/27 10:06:38;;;;;;;;;;;;;;;11.04;100.00;98657.02;1648399;86;25018;-83
2022/04/27 10:09:04;;;;;;;;;;;;;;;11.05;100.00;98660.02;1655641;86;20245;-83
2022/04/27 10:11:34;;;;;;;;;;;;;;;11.08;100.00;98657.17;1653612;86;21090;-83
2022/04/27 10:13:58;;;;;;;;;;;;;;;11.06;100.00;98660.39;1650404;86;24456;-83
2022/04/27 10:16:25;;;;;;;;;;;;;;;11.07;100.00;98658.14;1653024;86;20740;-84
2022/04/27 10:18:51;;;;;;;;;;;;;;;11.13;100.00;98657.69;1653611;86;24932;-83
2022/04/27 10:21:40;;;;;;;;;;;;;;;11.19;100.00;98656.44;1660544;85;22052;-84
2022/04/27 10:24:07;;;;;;;;;;;;;;;11.29;100.00;98660.94;1649204;86;26222;-83
2022/04/27 10:26:33;;;;;;;;;;;;;;;11.39;100.00;98661.16;1647079;86;24456;-84
2022/04/27 10:29:00;;;;;;;;;;;;;;;11.44;100.00;98656.44;1656851;86;20336;-83
2022/04/27 10:31:38;;;;;;;;;;;;;;;11.47;100.00;98656.20;1651388;86;24817;-84
2022/04/27 10:34:07;;;;;;;;;;;;;;;11.57;100.00;98661.63;1600926;89;22007;-83
2022/04/27 10:36:34;;;;;;;;;;;;;;;11.58;100.00;98650.20;1600244;89;25979;-83
2022/04/27 10:39:11;;;;;;;;;;;;;;;11.62;100.00;98655.59;1636003;85;24539;-83
2022/04/27 10:41:51;;;;;;;;;;;;;;;11.69;100.00;98652.91;1651341;86;20237;-83
2022/04/27 10:44:17;;;;;;;;;;;;;;;11.77;100.00;98651.09;1657749;85;24855;-83
2022/04/27 10:46:44;;;;;;;;;;;;;;;11.84;100.00;98654.47;1656363;86;20804;-83
2022/04/27 10:49:24;;;;;;;;;;;;;;;11.86;100.00;98649.96;1658127;86;25792;-83
2022/04/27 10:52:03;;;;;;;;;;;;;;;11.93;100.00;98645.96;1661201;86;25377;-83
2022/04/27 10:54:31;;;;;;;;;;;;;;;12.05;100.00;98652.95;1659839;86;20588;-84
2022/04/27 10:57:18;;;;;;;;;;;;;;;12.00;100.00;98653.73;1662699;86;24753;-84
2022/04/27 10:59:54;;;;;;;;;;;;;;;11.97;100.00;98650.50;1658053;84;22214;-83
2022/04/27 11:02:41;;;;;;;;;;;;;;;12.01;100.00;98652.79;1657212;86;26093;-84
2022/04/27 11:05:13;;;;;;;;;;;;;;;12.10;100.00;98656.08;1653281;86;24546;-84
2022/04/27 11:07:42;;;;;;;;;;;;;;;12.14;100.00;98656.69;1660043;86;20174;-83
2022/04/27 11:10:15;;;;;;;;;;;;;;;12.27;100.00;98656.64;1660050;85;24738;-84
2022/04/27 11:12:42;;;;;;;;;;;;;;;12.39;100.00;98652.62;1676839;84;22238;-83
2022/04/27 11:15:10;;;;;;;;;;;;;;;12.48;100.00;98654.59;1673467;83;26035;-83
2022/04/27 11:17:40;;;;;;;;;;;;;;;12.52;100.00;98653.88;1675803;85;24426;-84
2022/04/27 11:20:08;;;;;;;;;;;;;;;12.54;100.00;98646.73;1678108;85;20534;-84
2022/04/27 11:22:39;;;;;;;;;;;;;;;12.55;100.00;98652.31;1669551;85;24777;-83
2022/04/27 11:25:07;;;;;;;;;;;;;;;12.63;100.00;98660.48;1670011;85;22880;-83
2022/04/27 11:27:36;;;;;;;;;;;;;;;12.75;100.00;98659.56;1672780;85;26199;-83
2022/04/27 11:30:03;;;;;;;;;;;;;;;12.84;100.00;98659.34;1671746;85;24524;-83
2022/04/27 11:32:29;;;;;;;;;;;;;;;12.88;100.00;98649.79;1680689;85;20370;-84
2022/04/27 11:34:55;;;;;;;;;;;;;;;12.90;100.00;98650.52;1671101;84;20776;-83
2022/04/27 11:37:22;;;;;;;;;;;;;;;12.95;100.00;98643.60;1675538;85;21993;-83
2022/04/27 11:39:49;;;;;;;;;;;;;;;12.99;100.00;98648.50;1677551;85;26055;-83
2022/04/27 11:42:16;;;;;;;;;;;;;;;12.97;100.00;98644.33;1666698;85;24044;-83
2022/04/27 11:44:43;;;;;;;;;;;;;;;12.94;100.00;98649.80;1663417;84;20231;-83
2022/04/27 11:47:29;;;;;;;;;;;;;;;12.95;100.00;98649.70;1659760;86;24741;-83
2022/04/27 11:49:55;;;;;;;;;;;;;;;12.98;100.00;98646.82;1660529;86;21995;-83
2022/04/27 11:52:22;;;;;;;;;;;;;;;12.95;100.00;98637.03;1661441;86;26076;-83
2022/04/27 11:54:48;;;;;;;;;;;;;;;12.82;100.00;98646.81;1664194;84;24434;-83
2022/04/27 11:57:16;;;;;;;;;;;;;;;12.72;100.00;98647.13;1660269;84;20297;-83
2022/04/27 11:59:43;;;;;;;;;;;;;;;12.66;100.00;98646.27;1661470;85;24950;-83
2022/04/27 12:02:10;;;;;;;;;;;;;;;12.51;100.00;98645.16;1659552;85;21969;-83
2022/04/27 12:04:36;;;;;;;;;;;;;;;12.43;100.00;98642.75;1664762;85;26151;-82
2022/04/27 12:07:04;;;;;;;;;;;;;;;12.40;100.00;98649.05;1660925;85;24493;-83
2022/04/27 12:09:31;;;;;;;;;;;;;;;12.37;100.00;98644.04;1660992;85;20243;-83
2022/04/27 12:11:59;;;;;;;;;;;;;;;12.40;100.00;98644.27;1663167;86;24855;-83
2022/04/27 12:14:25;;;;;;;;;;;;;;;12.48;100.00;98643.25;1662007;86;21989;-83
2022/04/27 12:16:55;;;;;;;;;;;;;;;12.54;100.00;98643.63;1661015;86;25975;-83
2022/04/27 12:19:22;;;;;;;;;;;;;;;12.56;100.00;98642.18;1659311;85;24431;-83
2022/04/27 12:21:48;;;;;;;;;;;;;;;12.55;100.00;98640.03;1662877;84;20593;-84
2022/04/27 12:24:15;;;;;;;;;;;;;;;12.57;100.00;98633.36;1661624;86;24771;-84
2022/04/27 12:26:41;;;;;;;;;;;;;;;12.59;100.00;98635.41;1658438;85;21984;-84
2022/04/27 12:29:07;;;;;;;;;;;;;;;12.55;100.00;98628.69;1661998;86;21665;-84
2022/04/27 12:31:34;;;;;;;;;;;;;;;12.54;100.00;98633.61;1662453;86;24496;-84
2022/04/27 12:34:02;;;;;;;;;;;;;;;12.56;100.00;98634.31;1660367;86;20247;-84
2022/04/27 12:39:20;;;;;;;;;;;;;;;12.67;100.00;98633.03;1661359;86;22203;-84
2022/04/27 12:41:47;;;;;;;;;;;;;;;12.70;100.00;98631.98;1659065;85;26010;-83
2022/04/27 12:44:21;;;;;;;;;;;;;;;12.71;100.00;98631.84;1626096;87;24451;-84
2022/04/27 12:46:55;;;;;;;;;;;;;;;12.68;100.00;98633.87;1670750;85;20289;-82
2022/04/27 12:49:31;;;;;;;;;;;;;;;12.71;100.00;98625.27;1673177;85;25471;-83
2022/04/27 12:52:18;;;;;;;;;;;;;;;12.75;100.00;98628.53;1667026;85;22092;-83
2022/04/27 12:54:47;;;;;;;;;;;;;;;12.81;100.00;98624.97;1669359;85;26182;-83
2022/04/27 12:57:14;;;;;;;;;;;;;;;12.85;100.00;98629.02;1668546;85;24502;-83
2022/04/27 12:59:53;;;;;;;;;;;;;;;12.93;100.00;98625.32;1672056;85;20618;-83
2022/04/27 13:02:20;;;;;;;;;;;;;;;13.00;100.00;98625.22;1672528;84;24843;-83
2022/04/27 13:04:47;;;;;;;;;;;;;;;13.06;100.00;98634.89;1672481;85;22056;-84